Time;durP1;ratioP1;P1;durP2;ratioP2;P2;SDS_P1;SDS_P2;PMS_P1;PMS_P2;Temp;Humidity;BMP_temperature;BMP_pressure;BME280_temperature;BME280_humidity;BME280_pressure;Samples;Min_cycle;Max_cycle;Signal;HPM_P1;HPM_P2
2023/04/12 00:02:15;;;;;;;4.03;0.57;;;;;;;2.67;48.10;100714.84;5025421;28;20128;-69
2023/04/12 00:04:40;;;;;;;3.58;0.57;;;;;;;2.67;47.58;100704.53;5024240;28;20067;-70
2023/04/12 00:07:08;;;;;;;7.00;0.93;;;;;;;2.54;47.79;100694.31;5026900;28;20151;-70
2023/04/12 00:09:35;;;;;;;5.70;1.45;;;;;;;2.60;47.74;100688.25;5019538;28;20072;-69
2023/04/12 00:12:01;;;;;;;6.57;0.60;;;;;;;2.64;47.63;100687.31;5028163;28;20047;-69
2023/04/12 00:14:27;;;;;;;6.07;0.85;;;;;;;2.58;47.71;100682.25;5025646;28;20436;-70
2023/04/12 00:16:53;;;;;;;3.85;0.65;;;;;;;2.52;48.09;100677.16;5025475;28;20063;-69
2023/04/12 00:19:19;;;;;;;11.25;0.70;;;;;;;2.71;47.34;100670.94;5026183;28;20045;-70
2023/04/12 00:21:44;;;;;;;1.23;0.40;;;;;;;2.54;47.70;100670.25;5024131;28;20040;-69
2023/04/12 00:24:10;;;;;;;2.75;0.52;;;;;;;2.69;47.61;100657.19;5025255;28;20677;-70
2023/04/12 00:26:35;;;;;;;2.40;0.52;;;;;;;2.49;48.11;100653.97;5025522;28;20703;-69
2023/04/12 00:29:01;;;;;;;3.90;0.55;;;;;;;2.40;47.88;100651.44;5025497;28;20043;-69
2023/04/12 00:31:26;;;;;;;3.40;0.50;;;;;;;2.51;47.88;100640.19;5023352;28;20063;-69
2023/04/12 00:33:52;;;;;;;7.45;0.50;;;;;;;2.72;47.35;100631.34;5023476;28;20060;-70
2023/04/12 00:36:18;;;;;;;6.40;1.23;;;;;;;2.51;47.78;100626.41;5025607;28;20028;-68
2023/04/12 00:38:47;;;;;;;3.90;0.30;;;;;;;2.41;48.03;100614.47;5024996;28;20557;-68
2023/04/12 00:41:14;;;;;;;7.47;0.50;;;;;;;2.56;47.51;100610.00;5025855;28;20324;-67
2023/04/12 00:43:43;;;;;;;1.48;0.50;;;;;;;2.42;48.12;100601.56;5024843;28;20263;-67
2023/04/12 00:46:10;;;;;;;5.22;0.45;;;;;;;2.49;48.08;100592.06;5014967;28;20379;-67
2023/04/12 00:48:36;;;;;;;3.60;0.77;;;;;;;2.68;47.35;100588.38;5025514;28;20115;-68
2023/04/12 00:51:02;;;;;;;3.83;0.60;;;;;;;2.56;47.61;100585.94;5022307;28;20033;-67
2023/04/12 00:53:28;;;;;;;5.07;0.60;;;;;;;2.73;47.46;100586.59;5009572;28;20247;-68
2023/04/12 00:55:54;;;;;;;8.27;0.77;;;;;;;2.54;48.11;100574.78;5022989;28;20433;-68
2023/04/12 00:58:25;;;;;;;6.28;0.57;;;;;;;2.52;47.62;100561.03;5018831;28;20053;-73
2023/04/12 01:00:51;;;;;;;5.07;0.50;;;;;;;2.64;47.33;100566.03;5038775;28;20123;-73
2023/04/12 01:03:21;;;;;;;2.15;0.40;;;;;;;2.76;47.25;100563.34;5028839;28;20071;-73
2023/04/12 01:05:58;;;;;;;6.35;0.50;;;;;;;2.62;47.21;100566.94;5023261;28;20752;-73
2023/04/12 01:08:39;;;;;;;3.45;0.68;;;;;;;2.56;47.53;100561.00;5025930;28;20035;-73
2023/04/12 01:11:26;;;;;;;1.70;0.68;;;;;;;2.83;47.10;100550.34;5038397;28;20029;-72
2023/04/12 01:14:02;;;;;;;1.63;0.40;;;;;;;2.92;46.67;100545.91;5023944;28;20036;-72
2023/04/12 01:16:39;;;;;;;6.18;0.57;;;;;;;3.06;46.44;100543.13;5003648;28;20037;-72
2023/04/12 01:19:35;;;;;;;3.30;0.30;;;;;;;2.75;46.93;100538.38;5025021;28;20044;-72
2023/04/12 01:22:26;;;;;;;4.53;0.60;;;;;;;2.91;46.44;100533.91;5024455;28;20120;-71
2023/04/12 01:25:22;;;;;;;5.22;0.80;;;;;;;2.91;46.49;100530.44;5019504;28;20555;-72
2023/04/12 01:27:55;;;;;;;6.25;0.68;;;;;;;3.11;46.00;100517.25;5000132;28;20480;-72
2023/04/12 01:30:22;;;;;;;6.28;0.70;;;;;;;3.05;46.01;100510.47;5025004;28;20041;-74
2023/04/12 01:32:50;;;;;;;4.43;0.63;;;;;;;3.12;45.92;100516.38;5023005;28;20609;-74
2023/04/12 01:35:18;;;;;;;2.00;0.63;;;;;;;3.26;45.43;100504.09;5008356;28;20040;-74
2023/04/12 01:37:45;;;;;;;4.32;0.90;;;;;;;3.22;45.46;100497.28;5024370;28;20043;-75
2023/04/12 01:40:12;;;;;;;4.90;0.60;;;;;;;3.07;46.16;100500.97;5008225;28;20116;-77
2023/04/12 01:42:38;;;;;;;2.30;0.60;;;;;;;3.01;45.95;100493.31;5040498;28;20036;-75
2023/04/12 01:45:05;;;;;;;4.50;0.60;;;;;;;3.31;45.22;100483.41;5025646;28;20041;-74
2023/04/12 01:47:32;;;;;;;3.40;0.30;;;;;;;3.22;44.99;100483.50;5008783;28;20573;-76
2023/04/12 01:50:06;;;;;;;4.70;0.85;;;;;;;3.42;45.27;100466.00;5019468;28;20051;-77
2023/04/12 01:52:37;;;;;;;5.10;0.40;;;;;;;3.26;44.79;100462.78;5025893;28;20067;-69
2023/04/12 01:55:05;;;;;;;5.45;0.77;;;;;;;3.48;44.11;100454.72;5023558;28;20063;-69
2023/04/12 01:57:32;;;;;;;1.75;0.85;;;;;;;3.58;43.91;100456.25;5030993;28;20056;-69
2023/04/12 02:00:00;;;;;;;4.85;0.73;;;;;;;3.36;44.47;100450.63;5029601;28;20917;-70
2023/04/12 02:02:26;;;;;;;1.42;0.30;;;;;;;3.62;44.24;100444.13;5032193;28;20039;-70
2023/04/12 02:04:52;;;;;;;4.55;0.68;;;;;;;3.53;43.91;100434.81;5023002;28;20052;-69
2023/04/12 02:07:20;;;;;;;2.15;0.40;;;;;;;3.45;44.19;100426.31;5028473;28;20121;-69
2023/04/12 02:09:46;;;;;;;4.53;0.30;;;;;;;3.60;44.07;100420.88;5030860;28;20079;-72
2023/04/12 02:12:12;;;;;;;2.58;0.47;;;;;;;3.78;43.48;100422.28;5010005;28;20041;-74
2023/04/12 02:14:37;;;;;;;5.38;0.80;;;;;;;3.69;43.58;100418.13;5020492;28;20109;-77
2023/04/12 02:17:04;;;;;;;2.60;0.43;;;;;;;3.65;43.62;100413.91;5053758;28;20041;-77
2023/04/12 02:19:31;;;;;;;11.43;0.75;;;;;;;3.39;44.62;100402.31;5039115;28;20043;-78
2023/04/12 02:21:57;;;;;;;2.03;0.35;;;;;;;3.50;44.27;100399.53;5028528;28;20033;-72
2023/04/12 02:24:22;;;;;;;4.50;0.40;;;;;;;3.47;44.03;100389.28;5045544;28;20150;-70
2023/04/12 02:26:50;;;;;;;5.65;0.35;;;;;;;3.61;43.88;100381.25;5030555;28;20123;-72
2023/04/12 02:29:16;;;;;;;3.03;0.30;;;;;;;3.73;43.68;100380.16;5029221;28;20028;-71
2023/04/12 02:31:45;;;;;;;3.88;0.45;;;;;;;3.56;44.05;100368.44;5031580;28;20795;-70
2023/04/12 02:34:12;;;;;;;1.73;0.40;;;;;;;3.64;43.93;100359.66;5013862;28;20104;-69
2023/04/12 02:36:52;;;;;;;1.75;0.40;;;;;;;3.72;43.81;100357.78;5019964;28;20033;-73
2023/04/12 02:39:17;;;;;;;4.15;0.45;;;;;;;3.06;45.29;100353.78;5008580;28;20332;-74
2023/04/12 02:41:45;;;;;;;5.68;0.40;;;;;;;3.42;44.13;100344.56;5018415;28;20028;-74
2023/04/12 02:44:11;;;;;;;3.42;0.95;;;;;;;3.70;43.78;100342.31;5029181;28;20183;-70
2023/04/12 02:46:42;;;;;;;2.55;0.55;;;;;;;3.88;43.83;100335.06;5015115;28;20094;-70
2023/04/12 02:49:07;;;;;;;4.10;0.50;;;;;;;3.77;44.05;100330.97;5028467;28;20037;-72
2023/04/12 02:51:38;;;;;;;5.50;0.50;;;;;;;3.68;44.21;100319.97;5026885;28;20552;-70
2023/04/12 02:54:04;;;;;;;3.17;1.58;;;;;;;3.63;44.25;100321.75;5013145;28;20087;-72
2023/04/12 02:56:42;;;;;;;11.13;0.88;;;;;;;3.70;44.09;100324.22;5032426;28;20417;-71
2023/04/12 02:59:28;;;;;;;1.92;0.30;;;;;;;3.56;44.37;100311.56;5020854;28;20033;-71
2023/04/12 03:02:17;;;;;;;2.55;0.52;;;;;;;3.73;44.24;100307.78;5047597;28;20112;-70
2023/04/12 03:04:45;;;;;;;5.10;0.63;;;;;;;3.61;44.48;100314.06;5024883;28;20040;-70
2023/04/12 03:07:13;;;;;;;4.78;0.50;;;;;;;3.70;44.31;100306.13;5030820;28;20783;-71
2023/04/12 03:09:52;;;;;;;4.35;0.60;;;;;;;3.69;44.64;100288.91;5030133;28;20041;-71
2023/04/12 03:12:19;;;;;;;7.82;0.60;;;;;;;3.46;45.12;100294.53;5028041;28;20120;-72
2023/04/12 03:14:55;;;;;;;3.40;0.70;;;;;;;3.64;44.81;100287.31;5019402;28;20033;-69
2023/04/12 03:17:23;;;;;;;4.72;0.55;;;;;;;3.67;44.72;100285.53;5027257;28;20047;-70
2023/04/12 03:19:51;;;;;;;4.47;0.60;;;;;;;3.68;44.93;100274.28;5025493;28;20088;-69
2023/04/12 03:22:19;;;;;;;5.88;0.70;;;;;;;3.48;45.11;100272.09;5021948;28;20493;-70
2023/04/12 03:24:50;;;;;;;1.98;0.40;;;;;;;3.73;45.22;100266.44;5025375;28;20037;-71
2023/04/12 03:27:19;;;;;;;2.95;0.50;;;;;;;3.79;44.83;100261.97;5025865;28;20028;-70
2023/04/12 03:29:44;;;;;;;3.47;0.60;;;;;;;3.48;45.54;100256.59;5020231;28;20036;-70
2023/04/12 03:32:10;;;;;;;5.70;0.73;;;;;;;3.73;45.26;100250.91;5009181;28;20029;-71
2023/04/12 03:34:36;;;;;;;4.40;0.32;;;;;;;3.75;45.32;100244.00;5024503;28;20029;-69
2023/04/12 03:37:10;;;;;;;5.72;0.70;;;;;;;3.73;45.02;100238.00;5026791;28;20043;-71
2023/04/12 03:39:39;;;;;;;1.48;1.05;;;;;;;3.46;45.81;100236.84;5024964;28;20090;-69
2023/04/12 03:42:07;;;;;;;3.45;0.40;;;;;;;3.89;45.14;100215.25;5042230;28;20043;-68
2023/04/12 03:44:32;;;;;;;4.88;1.10;;;;;;;3.84;45.39;100210.19;5025644;28;20072;-69
2023/04/12 03:47:02;;;;;;;4.45;0.75;;;;;;;3.74;45.66;100198.38;5025382;28;20052;-68
2023/04/12 03:49:33;;;;;;;1.37;0.30;;;;;;;3.64;45.80;100189.94;5026304;28;20033;-73
2023/04/12 03:52:00;;;;;;;4.90;1.20;;;;;;;3.72;45.73;100182.03;5039604;28;20037;-73
2023/04/12 03:54:26;;;;;;;1.65;0.50;;;;;;;3.33;46.56;100188.00;5007987;28;20119;-73
2023/04/12 03:56:55;;;;;;;5.85;0.65;;;;;;;3.57;46.31;100189.22;5008856;28;20059;-71
2023/04/12 03:59:27;;;;;;;1.42;0.40;;;;;;;3.66;45.92;100188.19;5023965;28;20048;-69
2023/04/12 04:01:54;;;;;;;5.85;0.60;;;;;;;3.62;46.49;100176.19;5005277;28;20033;-70
2023/04/12 04:04:22;;;;;;;4.30;0.40;;;;;;;3.58;46.39;100175.44;5022605;28;20114;-68
2023/04/12 04:06:52;;;;;;;4.53;0.73;;;;;;;3.70;46.19;100168.28;5021557;28;20391;-68
2023/04/12 04:09:18;;;;;;;2.30;0.70;;;;;;;3.70;46.45;100173.47;5024891;28;20515;-66
2023/04/12 04:11:44;;;;;;;2.22;1.02;;;;;;;3.83;46.15;100164.53;5021827;28;20072;-68
2023/04/12 04:14:09;;;;;;;8.02;0.70;;;;;;;3.88;46.24;100154.09;5024965;28;20124;-67
2023/04/12 04:16:35;;;;;;;2.08;0.80;;;;;;;3.87;46.03;100152.38;5023046;28;20032;-68
2023/04/12 04:19:03;;;;;;;1.55;0.63;;;;;;;3.55;46.88;100153.97;5007224;28;20497;-69
2023/04/12 04:21:29;;;;;;;4.03;0.57;;;;;;;3.62;46.82;100150.34;5026830;28;20032;-69
2023/04/12 04:24:00;;;;;;;4.32;1.95;;;;;;;3.47;46.87;100156.75;5016887;28;20028;-71
2023/04/12 04:26:34;;;;;;;2.10;0.68;;;;;;;3.55;47.26;100159.97;5009380;28;20040;-71
2023/04/12 04:29:19;;;;;;;3.85;0.75;;;;;;;3.83;46.69;100143.88;5022943;28;20056;-69
2023/04/12 04:31:45;;;;;;;6.50;0.57;;;;;;;3.70;46.96;100143.28;5022249;28;20156;-70
2023/04/12 04:34:12;;;;;;;3.33;0.60;;;;;;;3.54;47.37;100136.78;5015082;28;20093;-69
2023/04/12 04:36:42;;;;;;;4.68;0.32;;;;;;;3.77;47.12;100138.81;5010051;28;20643;-69
2023/04/12 04:39:08;;;;;;;1.73;0.57;;;;;;;3.80;46.81;100129.25;5007208;28;20044;-70
2023/04/12 04:41:39;;;;;;;6.97;0.60;;;;;;;3.88;46.59;100125.66;5023959;28;20447;-69
2023/04/12 04:44:10;;;;;;;3.45;0.60;;;;;;;4.00;46.49;100121.00;5022797;28;20037;-69
2023/04/12 04:46:40;;;;;;;7.13;0.93;;;;;;;3.98;46.56;100109.88;5009525;28;20458;-71
2023/04/12 04:49:05;;;;;;;6.80;0.70;;;;;;;4.01;46.50;100106.38;5024862;28;20045;-71
2023/04/12 04:51:35;;;;;;;5.43;0.55;;;;;;;4.15;46.32;100103.44;5027305;28;20036;-73
2023/04/12 04:54:03;;;;;;;3.57;1.27;;;;;;;4.04;46.76;100097.69;5024788;28;20075;-70
2023/04/12 04:56:28;;;;;;;9.50;1.42;;;;;;;3.76;47.32;100096.63;5009544;28;20071;-71
2023/04/12 04:58:54;;;;;;;6.82;0.93;;;;;;;4.10;46.56;100090.63;5008600;28;20067;-70
2023/04/12 05:01:24;;;;;;;2.90;0.50;;;;;;;4.21;46.69;100087.75;5022249;28;20028;-66
2023/04/12 05:03:51;;;;;;;1.77;0.47;;;;;;;4.28;46.32;100086.69;5023908;28;20651;-74
2023/04/12 05:06:19;;;;;;;6.07;1.08;;;;;;;4.39;46.07;100079.50;5006769;28;20449;-74
2023/04/12 05:08:44;;;;;;;1.73;0.45;;;;;;;4.42;46.03;100082.00;5007787;28;20033;-74
2023/04/12 05:11:13;;;;;;;2.05;0.40;;;;;;;4.50;45.52;100076.63;5005377;28;20048;-72
2023/04/12 05:13:38;;;;;;;4.05;0.75;;;;;;;4.33;45.89;100074.50;5008452;28;20029;-73
2023/04/12 05:16:07;;;;;;;4.18;0.50;;;;;;;4.34;45.86;100076.19;5023961;28;20047;-72
2023/04/12 05:18:33;;;;;;;3.40;0.70;;;;;;;4.41;46.26;100075.13;5005860;28;20033;-72
2023/04/12 05:21:03;;;;;;;3.65;0.65;;;;;;;4.37;46.50;100081.28;5008144;28;20071;-73
2023/04/12 05:23:28;;;;;;;6.10;1.30;;;;;;;4.54;46.02;100080.84;5023225;28;20059;-76
2023/04/12 05:25:54;;;;;;;3.88;0.80;;;;;;;4.41;46.64;100072.56;5013199;28;20056;-76
2023/04/12 05:28:21;;;;;;;10.85;1.77;;;;;;;4.59;45.90;100067.75;5023504;28;20039;-74
2023/04/12 05:30:47;;;;;;;3.35;1.05;;;;;;;4.46;46.16;100069.00;5009745;28;20469;-76
2023/04/12 05:33:18;;;;;;;8.45;1.00;;;;;;;4.58;45.88;100071.22;5019918;28;20032;-72
2023/04/12 05:35:45;;;;;;;2.53;0.68;;;;;;;4.70;45.50;100057.97;5012056;28;20037;-73
2023/04/12 05:38:11;;;;;;;3.33;0.55;;;;;;;4.69;45.83;100055.41;5022692;28;20490;-74
2023/04/12 05:40:37;;;;;;;9.27;0.60;;;;;;;4.88;45.73;100054.03;5023121;28;20060;-72
2023/04/12 05:43:04;;;;;;;2.55;0.40;;;;;;;4.53;47.19;100053.25;5009555;28;20696;-74
2023/04/12 05:45:30;;;;;;;7.53;0.80;;;;;;;4.77;46.76;100041.34;5008829;28;20048;-73
2023/04/12 05:47:57;;;;;;;7.53;1.60;;;;;;;4.80;47.00;100046.41;5024855;28;20037;-74
2023/04/12 05:50:25;;;;;;;6.10;1.02;;;;;;;4.49;48.34;100040.44;5024089;28;20037;-75
2023/04/12 05:52:52;;;;;;;3.80;0.90;;;;;;;4.52;48.42;100040.34;5022754;28;20028;-71
2023/04/12 05:55:21;;;;;;;6.80;1.50;;;;;;;4.69;48.58;100038.13;5017361;28;20095;-72
2023/04/12 05:57:48;;;;;;;4.80;0.93;;;;;;;4.36;49.01;100035.63;5022326;28;20029;-70
2023/04/12 06:00:17;;;;;;;7.35;0.65;;;;;;;4.54;49.24;100028.19;5005398;28;20809;-71
2023/04/12 06:02:45;;;;;;;2.40;0.30;;;;;;;4.63;49.23;100017.59;5022286;28;20029;-73
2023/04/12 06:05:11;;;;;;;3.35;0.50;;;;;;;4.66;48.84;100014.94;5022032;28;20074;-73
2023/04/12 06:07:38;;;;;;;3.17;0.60;;;;;;;4.50;49.40;100011.06;5023186;28;20056;-70
2023/04/12 06:10:05;;;;;;;6.30;0.77;;;;;;;4.48;50.11;100003.38;5023815;28;20045;-72
2023/04/12 06:12:31;;;;;;;3.63;0.90;;;;;;;4.37;50.52;100001.06;5021026;28;20033;-74
2023/04/12 06:14:57;;;;;;;3.78;0.47;;;;;;;4.36;50.29;100001.09;5008658;28;20613;-73
2023/04/12 06:17:23;;;;;;;10.32;0.95;;;;;;;4.53;50.29;99995.47;5018785;28;20321;-75
2023/04/12 06:19:49;;;;;;;2.50;0.50;;;;;;;4.64;50.45;99993.41;5024559;28;20068;-74
2023/04/12 06:22:14;;;;;;;1.73;0.50;;;;;;;4.55;50.52;99985.91;5009106;28;20036;-74
2023/04/12 06:24:41;;;;;;;3.80;0.52;;;;;;;4.16;50.94;99981.84;5023852;28;20043;-72
2023/04/12 06:27:08;;;;;;;2.47;0.55;;;;;;;4.37;51.25;99980.38;5042157;28;20041;-74
2023/04/12 06:29:34;;;;;;;5.18;0.60;;;;;;;4.65;50.97;99971.78;5021399;28;20056;-76
2023/04/12 06:32:02;;;;;;;3.55;0.30;;;;;;;4.52;50.81;99957.53;5029572;28;20124;-76
2023/04/12 06:34:29;;;;;;;4.90;0.50;;;;;;;4.43;51.55;99954.34;5023731;28;20175;-75
2023/04/12 06:36:59;;;;;;;3.70;0.47;;;;;;;4.59;51.25;99953.88;5026444;28;20041;-75
2023/04/12 06:39:25;;;;;;;6.13;1.08;;;;;;;4.65;51.08;99951.09;5019368;28;20155;-73
2023/04/12 06:41:50;;;;;;;7.95;0.95;;;;;;;4.60;51.13;99945.22;5006602;28;20055;-72
2023/04/12 06:44:19;;;;;;;5.22;0.45;;;;;;;4.68;51.04;99951.03;5025844;28;20071;-73
2023/04/12 06:46:45;;;;;;;4.18;0.55;;;;;;;4.84;50.40;99943.63;5027591;28;20492;-73
2023/04/12 06:49:11;;;;;;;2.25;0.47;;;;;;;4.83;51.16;99927.25;5024268;28;20094;-73
2023/04/12 06:51:37;;;;;;;6.22;0.40;;;;;;;4.98;50.66;99930.28;5026457;28;20054;-72
2023/04/12 06:54:02;;;;;;;1.58;0.40;;;;;;;4.81;50.88;99929.03;5028015;28;20056;-71
2023/04/12 06:56:31;;;;;;;1.70;0.30;;;;;;;5.11;50.54;99926.41;5025240;28;20041;-72
2023/04/12 06:58:57;;;;;;;3.47;0.80;;;;;;;4.94;50.72;99923.50;5026092;28;20608;-73
2023/04/12 07:01:23;;;;;;;7.65;1.10;;;;;;;4.79;51.14;99920.47;5024367;28;20474;-72
2023/04/12 07:03:49;;;;;;;4.75;0.80;;;;;;;5.07;51.11;99919.63;5026752;28;20040;-73
2023/04/12 07:06:14;;;;;;;7.18;0.73;;;;;;;4.36;52.21;99890.72;5012807;28;20039;-72
2023/04/12 07:08:40;;;;;;;2.35;0.70;;;;;;;4.89;51.75;99909.84;5041380;28;20380;-70
2023/04/12 07:11:05;;;;;;;3.45;0.70;;;;;;;5.03;51.57;99912.84;5027374;28;20493;-69
2023/04/12 07:13:31;;;;;;;3.83;0.95;;;;;;;4.82;51.95;99901.41;5024683;28;20429;-69
2023/04/12 07:15:59;;;;;;;4.65;0.40;;;;;;;4.96;51.74;99896.66;5023346;28;20051;-68
2023/04/12 07:18:25;;;;;;;5.88;0.82;;;;;;;4.41;52.87;99891.44;5025069;28;20052;-70
2023/04/12 07:20:55;;;;;;;2.92;0.75;;;;;;;4.93;51.82;99893.31;5024221;28;20155;-69
2023/04/12 07:23:20;;;;;;;3.45;0.98;;;;;;;5.29;51.97;99896.44;5026295;28;20032;-69
2023/04/12 07:25:46;;;;;;;4.20;0.57;;;;;;;5.00;52.42;99893.06;5025842;28;20497;-70
2023/04/12 07:28:11;;;;;;;1.83;1.02;;;;;;;5.28;52.10;99887.00;5026601;28;20604;-70
2023/04/12 07:30:40;;;;;;;1.70;0.52;;;;;;;5.14;52.18;99884.84;5023021;28;20095;-69
2023/04/12 07:33:06;;;;;;;7.25;1.00;;;;;;;5.05;52.92;99885.16;5024217;28;20260;-69
2023/04/12 07:35:32;;;;;;;6.43;0.85;;;;;;;5.16;52.98;99880.47;5042971;28;20929;-70
2023/04/12 07:37:58;;;;;;;2.58;0.73;;;;;;;5.23;52.61;99881.97;5030988;28;20033;-69
2023/04/12 07:40:24;;;;;;;2.55;0.40;;;;;;;5.31;52.88;99886.03;5030581;28;20119;-69
2023/04/12 07:42:49;;;;;;;3.08;0.70;;;;;;;4.74;53.94;99874.91;5028031;28;20056;-69
2023/04/12 07:45:15;;;;;;;5.15;0.75;;;;;;;5.14;53.66;99874.47;5041465;28;20045;-69
2023/04/12 07:47:41;;;;;;;5.07;0.55;;;;;;;5.05;53.67;99870.44;5024625;28;20437;-70
2023/04/12 07:50:07;;;;;;;6.18;0.80;;;;;;;4.75;54.70;99867.09;5025303;28;20135;-69
2023/04/12 07:52:32;;;;;;;4.63;0.90;;;;;;;4.79;54.41;99868.69;5023520;28;20119;-69
2023/04/12 07:54:58;;;;;;;4.63;0.82;;;;;;;4.71;54.97;99864.66;5023997;28;20044;-70
2023/04/12 07:57:25;;;;;;;4.28;0.70;;;;;;;5.10;54.61;99867.72;5024290;28;20041;-70
2023/04/12 07:59:50;;;;;;;3.58;0.60;;;;;;;5.10;54.68;99862.56;5023548;28;20036;-70
2023/04/12 08:02:23;;;;;;;5.57;1.10;;;;;;;5.32;54.04;99861.81;5024915;28;20090;-69
2023/04/12 08:04:50;;;;;;;1.88;0.57;;;;;;;5.63;53.35;99857.22;5023662;28;20140;-69
2023/04/12 08:07:15;;;;;;;3.92;0.60;;;;;;;4.88;55.08;99853.75;5019579;28;20272;-69
2023/04/12 08:09:41;;;;;;;2.95;0.68;;;;;;;5.07;55.11;99851.44;5038670;28;20627;-69
2023/04/12 08:12:07;;;;;;;5.85;1.55;;;;;;;5.28;54.31;99850.72;5024372;28;20037;-69
2023/04/12 08:14:32;;;;;;;4.30;0.90;;;;;;;5.11;54.85;99853.03;5025707;28;20044;-68
2023/04/12 08:16:58;;;;;;;6.32;0.90;;;;;;;5.36;55.03;99853.88;5024752;28;20096;-70
2023/04/12 08:19:23;;;;;;;2.22;0.75;;;;;;;5.50;54.42;99855.13;5021805;28;20051;-69
2023/04/12 08:21:49;;;;;;;2.53;0.60;;;;;;;5.42;54.67;99847.66;5024355;28;20162;-69
2023/04/12 08:24:14;;;;;;;7.20;2.28;;;;;;;5.48;55.19;99837.06;5025399;28;20078;-68
2023/04/12 08:26:40;;;;;;;5.50;0.98;;;;;;;5.43;55.18;99844.13;5022269;28;20040;-69
2023/04/12 08:29:06;;;;;;;5.50;1.38;;;;;;;5.38;55.39;99841.72;5023122;28;20090;-69
2023/04/12 08:31:32;;;;;;;6.90;0.98;;;;;;;5.59;55.06;99842.72;5023039;28;20036;-69
2023/04/12 08:33:58;;;;;;;4.32;0.65;;;;;;;5.69;54.93;99832.00;5018892;28;20033;-69
2023/04/12 08:36:26;;;;;;;7.97;1.02;;;;;;;5.80;54.71;99842.84;5037565;28;20040;-68
2023/04/12 08:38:54;;;;;;;2.78;0.70;;;;;;;5.91;54.54;99845.88;5021611;28;20517;-69
2023/04/12 08:41:20;;;;;;;1.30;0.50;;;;;;;5.79;55.01;99842.00;5024975;28;20029;-69
2023/04/12 08:43:46;;;;;;;4.07;0.82;;;;;;;5.70;55.65;99844.91;5039377;28;20025;-69
2023/04/12 08:46:16;;;;;;;7.20;1.35;;;;;;;5.91;55.17;99835.50;5026153;28;20075;-69
2023/04/12 08:48:45;;;;;;;3.88;0.60;;;;;;;5.69;55.50;99829.41;5021521;28;20043;-69
2023/04/12 08:51:13;;;;;;;3.17;0.60;;;;;;;5.39;56.10;99821.81;5024670;28;20049;-69
2023/04/12 08:53:39;;;;;;;3.88;0.90;;;;;;;5.49;56.34;99828.38;5018426;28;20110;-70
2023/04/12 08:56:09;;;;;;;3.30;0.68;;;;;;;5.72;56.16;99829.31;5023615;28;20592;-69
2023/04/12 08:58:37;;;;;;;2.67;0.65;;;;;;;5.58;56.23;99822.88;5009320;28;20046;-70
2023/04/12 09:01:03;;;;;;;4.43;1.30;;;;;;;5.64;56.44;99808.84;5023168;28;20049;-70
2023/04/12 09:03:30;;;;;;;4.47;0.88;;;;;;;5.35;56.76;99815.06;5020423;28;20048;-69
2023/04/12 09:05:55;;;;;;;6.68;0.98;;;;;;;5.64;56.46;99814.88;5037196;28;20508;-70
2023/04/12 09:08:21;;;;;;;4.18;0.85;;;;;;;5.14;57.48;99812.31;5022322;28;20036;-69
2023/04/12 09:10:46;;;;;;;7.10;1.40;;;;;;;5.50;56.80;99808.47;5018888;28;20122;-69
2023/04/12 09:13:11;;;;;;;3.38;0.80;;;;;;;5.60;56.91;99804.69;5023388;28;20037;-70
2023/04/12 09:15:47;;;;;;;5.53;0.90;;;;;;;5.12;58.08;99808.09;5017610;28;20713;-69
2023/04/12 09:18:13;;;;;;;3.58;0.70;;;;;;;5.21;58.27;99800.00;5037827;28;20041;-69
2023/04/12 09:20:39;;;;;;;2.88;0.75;;;;;;;5.37;57.70;99793.38;5016920;28;20040;-70
2023/04/12 09:23:23;;;;;;;3.13;0.60;;;;;;;5.49;57.25;99796.44;5022666;28;20132;-68
2023/04/12 09:25:51;;;;;;;5.45;0.70;;;;;;;5.65;57.31;99790.63;5018565;28;20041;-69
2023/04/12 09:28:28;;;;;;;5.05;1.40;;;;;;;5.67;56.86;99793.16;5022476;28;20165;-70
2023/04/12 09:30:56;;;;;;;1.52;0.57;;;;;;;5.54;57.71;99778.97;5018840;28;20922;-69
2023/04/12 09:33:31;;;;;;;5.72;1.15;;;;;;;5.78;57.37;99777.22;5020880;28;20037;-69
2023/04/12 09:36:01;;;;;;;1.33;0.50;;;;;;;5.75;58.14;99772.13;5021592;28;20048;-69
2023/04/12 09:38:28;;;;;;;2.03;0.85;;;;;;;5.79;57.20;99773.72;5015357;28;20099;-69
2023/04/12 09:40:54;;;;;;;4.90;0.82;;;;;;;5.87;57.01;99776.88;5021242;28;20044;-69
2023/04/12 09:43:35;;;;;;;4.60;0.63;;;;;;;5.79;57.57;99768.53;5021467;28;20081;-70
2023/04/12 09:46:12;;;;;;;2.85;1.60;;;;;;;5.91;57.53;99765.47;5019865;28;20110;-71
2023/04/12 09:48:47;;;;;;;4.32;0.75;;;;;;;5.89;57.23;99764.69;5018385;28;20056;-69
2023/04/12 09:51:22;;;;;;;2.05;0.65;;;;;;;6.03;57.32;99759.81;5022989;28;20174;-71
2023/04/12 09:53:49;;;;;;;6.47;1.48;;;;;;;5.96;57.11;99752.34;5034392;28;20091;-70
2023/04/12 09:56:15;;;;;;;4.35;0.85;;;;;;;6.39;56.57;99750.66;5020670;28;20051;-69
2023/04/12 09:58:41;;;;;;;3.35;1.17;;;;;;;6.08;56.69;99744.94;5020534;28;20029;-70
2023/04/12 10:01:08;;;;;;;3.35;0.80;;;;;;;6.22;56.96;99752.16;5020104;28;20067;-69
2023/04/12 10:03:34;;;;;;;2.60;0.75;;;;;;;6.14;57.34;99755.97;5011127;28;20039;-69
2023/04/12 10:06:02;;;;;;;2.63;0.70;;;;;;;6.32;56.94;99760.44;5035743;28;20041;-69
2023/04/12 10:08:30;;;;;;;2.60;0.70;;;;;;;5.91;58.00;99757.69;5021973;28;20127;-69
2023/04/12 10:10:56;;;;;;;2.60;0.98;;;;;;;5.58;58.61;99760.66;5033058;28;20523;-69
2023/04/12 10:13:22;;;;;;;2.80;0.70;;;;;;;5.63;57.78;99761.31;5022672;28;20798;-69
2023/04/12 10:15:52;;;;;;;4.35;0.88;;;;;;;5.73;58.07;99755.81;5033388;28;20033;-70
2023/04/12 10:18:18;;;;;;;1.58;0.70;;;;;;;5.61;58.44;99755.38;5024146;28;20036;-69
2023/04/12 10:20:45;;;;;;;3.42;1.08;;;;;;;6.02;57.38;99745.16;5022923;28;20079;-70
2023/04/12 10:23:15;;;;;;;2.72;1.02;;;;;;;5.74;58.06;99752.31;5010081;28;20468;-69
2023/04/12 10:25:44;;;;;;;2.40;0.88;;;;;;;5.99;57.81;99754.81;5021628;28;20633;-70
2023/04/12 10:28:20;;;;;;;2.28;0.93;;;;;;;6.12;57.48;99765.56;5025507;28;20026;-70
2023/04/12 10:30:50;;;;;;;6.28;1.13;;;;;;;6.24;57.25;99757.31;5018021;28;20029;-70
2023/04/12 10:33:25;;;;;;;5.97;0.98;;;;;;;5.29;59.40;99753.09;5026017;28;20033;-70
2023/04/12 10:35:55;;;;;;;3.60;1.20;;;;;;;5.90;57.92;99748.22;5004798;28;20155;-71
2023/04/12 10:38:25;;;;;;;3.30;0.82;;;;;;;6.12;57.48;99755.19;5021772;28;20283;-71
2023/04/12 10:41:12;;;;;;;4.05;1.02;;;;;;;5.94;57.81;99742.00;5023714;28;20128;-70
2023/04/12 10:43:39;;;;;;;4.22;1.15;;;;;;;5.65;58.60;99743.97;5020768;28;20166;-69
2023/04/12 10:47:08;;;;;;;2.70;0.70;;;;;;;5.74;59.02;99744.53;5032984;28;21225;-70
2023/04/12 10:49:34;;;;;;;3.28;1.42;;;;;;;5.69;59.04;99742.13;5024282;28;20120;-70
2023/04/12 10:52:02;;;;;;;2.40;0.77;;;;;;;5.52;59.58;99744.47;5003575;28;20112;-74
2023/04/12 10:54:28;;;;;;;3.78;1.10;;;;;;;6.10;58.74;99739.66;5000751;28;20099;-72
2023/04/12 10:56:53;;;;;;;2.30;1.00;;;;;;;5.81;59.26;99733.00;4997326;28;20539;-72
2023/04/12 10:59:24;;;;;;;5.80;1.13;;;;;;;6.14;58.40;99737.81;4993711;28;20719;-72
2023/04/12 11:02:10;;;;;;;2.65;0.98;;;;;;;6.34;57.65;99740.47;4974643;28;20088;-71
2023/04/12 11:04:35;;;;;;;2.38;0.80;;;;;;;6.42;57.49;99741.00;4968610;28;20037;-72
2023/04/12 11:07:10;;;;;;;2.90;0.93;;;;;;;5.94;58.60;99746.38;4994474;28;20430;-72
2023/04/12 11:09:47;;;;;;;2.60;1.23;;;;;;;6.27;57.72;99741.59;4975431;28;20767;-71
2023/04/12 11:12:28;;;;;;;3.03;0.80;;;;;;;6.52;57.41;99741.47;4981893;28;20030;-71
2023/04/12 11:14:59;;;;;;;3.22;0.70;;;;;;;6.49;57.42;99742.44;4975187;28;20061;-71
2023/04/12 11:17:26;;;;;;;2.63;0.98;;;;;;;6.21;57.65;99740.06;4982634;28;20777;-72
2023/04/12 11:19:57;;;;;;;2.00;0.80;;;;;;;6.59;57.50;99747.25;4976775;28;20038;-71
2023/04/12 11:22:26;;;;;;;6.95;1.02;;;;;;;6.65;57.44;99739.22;4983135;28;20515;-72
2023/04/12 11:24:55;;;;;;;1.95;0.73;;;;;;;6.41;57.71;99730.69;4976238;28;20093;-72
2023/04/12 11:27:23;;;;;;;1.77;0.68;;;;;;;6.65;56.83;99729.66;4982412;28;20347;-71
2023/04/12 11:29:51;;;;;;;1.77;0.68;;;;;;;6.59;56.81;99734.28;4976903;28;20481;-73
2023/04/12 11:32:17;;;;;;;2.55;0.77;;;;;;;6.40;56.78;99724.66;4983005;28;20066;-71
2023/04/12 11:34:46;;;;;;;1.83;0.93;;;;;;;6.67;56.48;99724.41;4961054;28;20072;-71
2023/04/12 11:37:11;;;;;;;5.07;0.70;;;;;;;7.02;56.37;99715.13;4983962;28;20088;-72
2023/04/12 11:39:40;;;;;;;3.08;0.57;;;;;;;6.65;56.86;99708.91;4977719;28;20317;-71
2023/04/12 11:42:09;;;;;;;6.13;0.73;;;;;;;6.91;56.43;99712.16;4982598;28;20127;-72
2023/04/12 11:44:35;;;;;;;5.32;1.15;;;;;;;6.83;56.87;99709.88;4979119;28;20938;-72